Time;durP1;ratioP1;P1;durP2;ratioP2;P2;SDS_P1;SDS_P2;PMS_P1;PMS_P2;Temp;Humidity;BMP_temperature;BMP_pressure;BME280_temperature;BME280_humidity;BME280_pressure;Samples;Min_cycle;Max_cycle;Signal;HPM_P1;HPM_P2
2023/04/15 00:01:59;;;;;;;;;;;;;;;12.94;100.00;99143.09;5052768;28;890;-68
2023/04/15 00:04:26;;;;;;;;;;;;;;;12.96;100.00;99129.59;5051016;28;1287;-67
2023/04/15 00:06:53;;;;;;;;;;;;;;;12.97;100.00;99130.34;5052399;28;814;-68
2023/04/15 00:09:20;;;;;;;;;;;;;;;12.95;100.00;99132.78;5052482;28;915;-69
2023/04/15 00:11:47;;;;;;;;;;;;;;;12.90;100.00;99131.31;5052144;28;1285;-69
2023/04/15 00:14:15;;;;;;;;;;;;;;;12.86;100.00;99136.94;5052217;28;849;-69
2023/04/15 00:16:42;;;;;;;;;;;;;;;12.82;100.00;99129.94;5050784;28;1971;-68
2023/04/15 00:19:09;;;;;;;;;;;;;;;12.79;100.00;99136.34;5050711;28;1330;-69
2023/04/15 00:21:35;;;;;;;;;;;;;;;12.77;100.00;99141.56;5050783;28;1313;-67
2023/04/15 00:24:03;;;;;;;;;;;;;;;12.76;100.00;99138.00;5051988;28;795;-68
2023/04/15 00:26:29;;;;;;;;;;;;;;;12.79;100.00;99131.59;5052157;28;890;-67
2023/04/15 00:28:56;;;;;;;;;;;;;;;12.84;100.00;99128.31;5051956;28;861;-68
2023/04/15 00:31:23;;;;;;;;;;;;;;;12.86;100.00;99125.84;5050582;28;1348;-69
2023/04/15 00:33:50;;;;;;;;;;;;;;;12.90;100.00;99130.53;5050550;28;1275;-68
2023/04/15 00:36:17;;;;;;;;;;;;;;;12.93;100.00;99136.00;5051698;28;1906;-68
2023/04/15 00:38:44;;;;;;;;;;;;;;;12.94;100.00;99131.25;5051822;28;802;-68
2023/04/15 00:41:11;;;;;;;;;;;;;;;12.92;100.00;99139.22;5050432;28;890;-69
2023/04/15 00:43:38;;;;;;;;;;;;;;;12.88;100.00;99139.28;5050440;28;1416;-67
2023/04/15 00:46:05;;;;;;;;;;;;;;;12.85;100.00;99137.41;5051696;28;861;-67
2023/04/15 00:48:32;;;;;;;;;;;;;;;12.83;100.00;99142.59;5050352;28;1386;-68
2023/04/15 00:50:59;;;;;;;;;;;;;;;12.80;100.00;99144.25;5051586;28;846;-68
2023/04/15 00:53:26;;;;;;;;;;;;;;;12.79;100.00;99142.69;5051629;28;882;-68
2023/04/15 00:55:53;;;;;;;;;;;;;;;12.78;100.00;99141.13;5050107;28;1953;-68
2023/04/15 00:58:21;;;;;;;;;;;;;;;12.77;100.00;99144.34;5051558;28;854;-68
2023/04/15 01:00:48;;;;;;;;;;;;;;;12.79;100.00;99144.69;5050191;28;1175;-69
2023/04/15 01:03:14;;;;;;;;;;;;;;;12.81;100.00;99147.81;5050126;28;1310;-67
2023/04/15 01:05:42;;;;;;;;;;;;;;;12.82;100.00;99149.34;5051504;28;869;-67
2023/04/15 01:08:09;;;;;;;;;;;;;;;12.83;100.00;99150.91;5051340;28;1001;-67
2023/04/15 01:10:36;;;;;;;;;;;;;;;12.83;100.00;99151.69;5051308;28;1293;-67
2023/04/15 01:13:03;;;;;;;;;;;;;;;12.83;100.00;99140.59;5051408;28;881;-69
2023/04/15 01:15:30;;;;;;;;;;;;;;;12.83;100.00;99135.06;5050064;28;1290;-68
2023/04/15 01:17:58;;;;;;;;;;;;;;;12.85;100.00;99138.16;5049932;28;1906;-69
2023/04/15 01:20:26;;;;;;;;;;;;;;;12.87;100.00;99137.75;5051637;28;877;-68
2023/04/15 01:22:54;;;;;;;;;;;;;;;12.88;100.00;99142.84;5051231;28;892;-68
2023/04/15 01:25:32;;;;;;;;;;;;;;;12.90;100.00;99144.41;5051189;28;849;-67
2023/04/15 01:27:59;;;;;;;;;;;;;;;12.90;100.00;99141.63;5051298;28;837;-67
2023/04/15 01:30:25;;;;;;;;;;;;;;;12.90;100.00;99138.88;5051205;28;872;-67
2023/04/15 01:32:52;;;;;;;;;;;;;;;12.88;100.00;99139.28;5051243;28;826;-67
2023/04/15 01:35:20;;;;;;;;;;;;;;;12.86;100.00;99131.41;5051194;28;826;-68
2023/04/15 01:37:47;;;;;;;;;;;;;;;12.82;100.00;99133.50;5049767;28;1890;-68
2023/04/15 01:40:14;;;;;;;;;;;;;;;12.82;100.00;99129.94;5051134;28;830;-68
2023/04/15 01:42:41;;;;;;;;;;;;;;;12.84;100.00;99127.50;5049787;28;1337;-67
2023/04/15 01:45:08;;;;;;;;;;;;;;;12.83;100.00;99123.97;5049795;28;1292;-67
2023/04/15 01:47:34;;;;;;;;;;;;;;;12.87;100.00;99123.88;5051098;28;967;-68
2023/04/15 01:50:01;;;;;;;;;;;;;;;12.89;100.00;99110.34;5051109;28;850;-69
2023/04/15 01:52:28;;;;;;;;;;;;;;;12.88;100.00;99117.09;5050991;28;841;-69
2023/04/15 01:54:55;;;;;;;;;;;;;;;12.87;100.00;99121.09;5050974;28;921;-67
2023/04/15 01:57:22;;;;;;;;;;;;;;;12.83;100.00;99125.97;5050840;28;1937;-68
2023/04/15 01:59:49;;;;;;;;;;;;;;;12.85;100.00;99124.31;5050944;28;820;-69
2023/04/15 02:02:16;;;;;;;;;;;;;;;12.85;100.00;99118.00;5050883;28;814;-69
2023/04/15 02:04:43;;;;;;;;;;;;;;;12.92;100.00;99119.81;5050947;28;814;-69
2023/04/15 02:07:10;;;;;;;;;;;;;;;12.98;100.00;99127.16;5049493;28;1211;-69
2023/04/15 02:09:37;;;;;;;;;;;;;;;13.02;100.00;99132.63;5049757;28;1354;-69
2023/04/15 02:12:04;;;;;;;;;;;;;;;12.97;100.00;99131.16;5052475;28;1318;-68
2023/04/15 02:14:31;;;;;;;;;;;;;;;12.94;100.00;99134.78;5054785;28;885;-67
2023/04/15 02:17:05;;;;;;;;;;;;;;;12.90;100.00;99125.78;5054331;28;2024;-68
2023/04/15 02:19:34;;;;;;;;;;;;;;;12.86;100.00;99136.16;5054339;28;961;-68
2023/04/15 02:22:00;;;;;;;;;;;;;;;12.82;100.00;99132.69;5054344;28;881;-67
2023/04/15 02:24:28;;;;;;;;;;;;;;;12.79;100.00;99128.81;5052913;28;1281;-68
2023/04/15 02:26:55;;;;;;;;;;;;;;;12.77;100.00;99127.69;5054197;28;893;-69
2023/04/15 02:29:25;;;;;;;;;;;;;;;12.76;100.00;99126.13;5054274;28;853;-68
2023/04/15 02:31:52;;;;;;;;;;;;;;;12.81;100.00;99126.38;5054166;28;1121;-68
2023/04/15 02:34:19;;;;;;;;;;;;;;;12.85;100.00;99129.09;5054145;28;818;-69
2023/04/15 02:36:47;;;;;;;;;;;;;;;12.91;100.00;99127.34;5054230;28;1940;-68
2023/04/15 02:39:15;;;;;;;;;;;;;;;12.93;100.00;99122.16;5052771;28;1174;-68
2023/04/15 02:41:42;;;;;;;;;;;;;;;12.94;100.00;99122.91;5054238;28;1252;-67
2023/04/15 02:44:11;;;;;;;;;;;;;;;12.96;100.00;99120.50;5052919;28;1402;-67
2023/04/15 02:46:40;;;;;;;;;;;;;;;13.04;100.00;99117.09;5053792;28;1097;-67
2023/04/15 02:49:07;;;;;;;;;;;;;;;13.10;100.00;99119.31;5053912;28;853;-67
2023/04/15 02:51:34;;;;;;;;;;;;;;;13.11;100.00;99118.13;5052478;28;1302;-69
2023/04/15 02:54:00;;;;;;;;;;;;;;;13.10;100.00;99127.66;5053648;28;790;-69
2023/04/15 02:56:27;;;;;;;;;;;;;;;13.04;100.00;99125.41;5053696;28;1878;-68
2023/04/15 02:58:55;;;;;;;;;;;;;;;13.01;100.00;99131.81;5053684;28;770;-68
2023/04/15 03:01:22;;;;;;;;;;;;;;;13.00;100.00;99127.50;5052284;28;1208;-68
2023/04/15 03:03:49;;;;;;;;;;;;;;;12.98;100.00;99129.94;5053617;28;806;-69
2023/04/15 03:06:16;;;;;;;;;;;;;;;12.96;100.00;99126.03;5053517;28;810;-68
2023/04/15 03:08:43;;;;;;;;;;;;;;;12.89;100.00;99124.22;5053628;28;935;-67
2023/04/15 03:11:10;;;;;;;;;;;;;;;12.77;100.00;99125.69;5053261;28;1226;-68
2023/04/15 03:13:38;;;;;;;;;;;;;;;12.70;100.00;99128.66;5053434;28;861;-68
2023/04/15 03:16:05;;;;;;;;;;;;;;;12.66;100.00;99137.03;5051962;28;1968;-68
2023/04/15 03:18:32;;;;;;;;;;;;;;;12.67;100.00;99132.28;5051997;28;1348;-68
2023/04/15 03:20:59;;;;;;;;;;;;;;;12.64;100.00;99133.16;5053228;28;857;-68
2023/04/15 03:23:25;;;;;;;;;;;;;;;12.61;100.00;99125.69;5052125;28;865;-69
2023/04/15 03:25:54;;;;;;;;;;;;;;;12.64;100.00;99130.38;5053156;28;881;-68
2023/04/15 03:28:22;;;;;;;;;;;;;;;12.68;100.00;99119.97;5051765;28;1187;-68
2023/04/15 03:30:49;;;;;;;;;;;;;;;12.70;100.00;99123.09;5051765;28;1308;-67
2023/04/15 03:33:15;;;;;;;;;;;;;;;12.73;100.00;99122.22;5051659;28;1226;-68
2023/04/15 03:35:42;;;;;;;;;;;;;;;12.76;100.00;99121.38;5053245;28;854;-67
2023/04/15 03:38:09;;;;;;;;;;;;;;;12.77;100.00;99114.59;5052942;28;1949;-68
2023/04/15 03:40:36;;;;;;;;;;;;;;;12.81;100.00;99120.06;5052844;28;900;-68
2023/04/15 03:43:03;;;;;;;;;;;;;;;12.82;100.00;99122.41;5052841;28;798;-68
2023/04/15 03:45:30;;;;;;;;;;;;;;;12.84;100.00;99125.53;5051414;28;1307;-69
2023/04/15 03:47:57;;;;;;;;;;;;;;;12.83;100.00;99126.72;5052750;28;790;-68
2023/04/15 03:50:23;;;;;;;;;;;;;;;12.84;100.00;99128.31;5051379;28;1266;-67
2023/04/15 03:52:50;;;;;;;;;;;;;;;12.82;100.00;99124.38;5052506;28;877;-68
2023/04/15 03:55:17;;;;;;;;;;;;;;;12.74;100.00;99129.34;5052581;28;858;-68
2023/04/15 03:57:44;;;;;;;;;;;;;;;12.67;100.00;99135.03;5051171;28;1898;-67
2023/04/15 04:00:11;;;;;;;;;;;;;;;12.62;100.00;99139.13;5052435;28;890;-68
2023/04/15 04:02:38;;;;;;;;;;;;;;;12.61;100.00;99145.88;5051076;28;1426;-67
2023/04/15 04:05:05;;;;;;;;;;;;;;;12.57;100.00;99147.97;5052331;28;877;-68
2023/04/15 04:07:31;;;;;;;;;;;;;;;12.51;100.00;99162.78;5052307;28;818;-66
2023/04/15 04:09:58;;;;;;;;;;;;;;;12.39;100.00;99162.22;5052467;28;1358;-67
2023/04/15 04:12:24;;;;;;;;;;;;;;;12.28;100.00;99172.75;5052544;28;811;-67
2023/04/15 04:14:51;;;;;;;;;;;;;;;12.14;100.00;99176.63;5052157;28;937;-67
2023/04/15 04:17:18;;;;;;;;;;;;;;;11.91;100.00;99171.97;5052160;28;1934;-60
2023/04/15 04:19:44;;;;;;;;;;;;;;;11.44;100.00;99177.59;5051956;28;945;-58
2023/04/15 04:22:11;;;;;;;;;;;;;;;11.20;100.00;99176.81;5051943;28;822;-59
2023/04/15 04:24:37;;;;;;;;;;;;;;;11.03;100.00;99187.78;5052074;28;826;-59
2023/04/15 04:27:04;;;;;;;;;;;;;;;10.99;100.00;99197.34;5052605;28;826;-60
2023/04/15 04:29:31;;;;;;;;;;;;;;;10.96;100.00;99185.13;5052163;28;842;-65
2023/04/15 04:31:58;;;;;;;;;;;;;;;10.98;100.00;99191.00;5052194;28;847;-64
2023/04/15 04:34:25;;;;;;;;;;;;;;;11.01;100.00;99184.66;5051993;28;878;-61
2023/04/15 04:36:51;;;;;;;;;;;;;;;11.03;100.00;99178.69;5052088;28;1960;-64
2023/04/15 04:39:18;;;;;;;;;;;;;;;11.06;100.00;99186.16;5052334;28;880;-60
2023/04/15 04:41:45;;;;;;;;;;;;;;;11.14;100.00;99197.88;5052145;28;850;-63
2023/04/15 04:44:11;;;;;;;;;;;;;;;11.21;100.00;99220.66;5051987;28;838;-66
2023/04/15 04:46:38;;;;;;;;;;;;;;;11.27;100.00;99204.38;5051868;28;826;-60
2023/04/15 04:49:05;;;;;;;;;;;;;;;11.26;100.00;99182.66;5051901;28;854;-61
2023/04/15 04:51:32;;;;;;;;;;;;;;;11.28;100.00;99200.38;5051701;28;805;-62
2023/04/15 04:53:59;;;;;;;;;;;;;;;11.33;100.00;99219.28;5052490;28;770;-67
2023/04/15 04:56:26;;;;;;;;;;;;;;;11.37;100.00;99235.81;5052014;28;1893;-70
2023/04/15 04:58:53;;;;;;;;;;;;;;;11.41;100.00;99242.06;5051659;28;881;-66
2023/04/15 05:01:18;;;;;;;;;;;;;;;11.48;100.00;99236.44;5051904;28;827;-71
2023/04/15 05:03:45;;;;;;;;;;;;;;;11.45;100.00;99242.78;5051792;28;896;-68
2023/04/15 05:06:12;;;;;;;;;;;;;;;11.49;100.00;99248.28;5050171;28;1302;-68
2023/04/15 05:08:40;;;;;;;;;;;;;;;11.54;100.00;99247.78;5051552;28;935;-67
2023/04/15 05:11:06;;;;;;;;;;;;;;;11.60;100.00;99246.09;5049862;28;1408;-66
2023/04/15 05:13:33;;;;;;;;;;;;;;;11.64;100.00;99260.66;5051418;28;823;-67
2023/04/15 05:16:00;;;;;;;;;;;;;;;11.69;100.00;99256.59;5051517;28;1906;-66
2023/04/15 05:18:27;;;;;;;;;;;;;;;11.76;100.00;99259.25;5051404;28;814;-66
2023/04/15 05:20:54;;;;;;;;;;;;;;;11.96;100.00;99264.84;5051237;28;838;-70
2023/04/15 05:23:21;;;;;;;;;;;;;;;12.10;100.00;99272.88;5050029;28;1156;-67
2023/04/15 05:25:48;;;;;;;;;;;;;;;12.20;100.00;99273.88;5051368;28;814;-72
2023/04/15 05:28:15;;;;;;;;;;;;;;;12.25;100.00;99263.06;5051377;28;790;-72
2023/04/15 05:31:20;;;;;;;;;;;;;;;12.32;100.00;99255.81;5049972;28;1195;-74
2023/04/15 05:34:17;;;;;;;;;;;;;;;12.38;100.00;99246.56;5051641;28;886;-80
2023/04/15 05:37:03;;;;;;;;;;;;;;;12.31;100.00;99245.94;5039087;28;1949;-70
2023/04/15 05:39:31;;;;;;;;;;;;;;;12.31;100.00;99254.25;5051776;28;799;-68
2023/04/15 05:41:58;;;;;;;;;;;;;;;12.30;100.00;99245.16;5051445;28;798;-68
2023/04/15 05:44:25;;;;;;;;;;;;;;;12.35;100.00;99247.41;5051319;28;929;-68
2023/04/15 05:46:52;;;;;;;;;;;;;;;12.49;100.00;99243.56;5054239;28;890;-68
2023/04/15 05:49:19;;;;;;;;;;;;;;;12.58;100.00;99243.00;5055093;28;808;-68
2023/04/15 05:51:46;;;;;;;;;;;;;;;12.50;100.00;99241.56;5055123;28;861;-68
2023/04/15 05:54:12;;;;;;;;;;;;;;;12.39;100.00;99248.13;5055161;28;854;-68
2023/04/15 05:56:40;;;;;;;;;;;;;;;12.36;100.00;99246.22;5054971;28;1885;-68
2023/04/15 05:59:07;;;;;;;;;;;;;;;12.35;100.00;99235.56;5055092;28;802;-67
2023/04/15 06:01:34;;;;;;;;;;;;;;;12.39;100.00;99234.28;5054978;28;794;-68
2023/04/15 06:04:01;;;;;;;;;;;;;;;12.45;100.00;99238.09;5054802;28;886;-68
2023/04/15 06:06:28;;;;;;;;;;;;;;;12.51;100.00;99229.28;5055058;28;838;-68
2023/04/15 06:08:54;;;;;;;;;;;;;;;12.67;100.00;99229.31;5055183;28;915;-69
2023/04/15 06:11:21;;;;;;;;;;;;;;;12.86;100.00;99230.47;5054799;28;1203;-68
2023/04/15 06:13:47;;;;;;;;;;;;;;;12.75;100.00;99241.03;5055202;28;838;-68
2023/04/15 06:16:13;;;;;;;;;;;;;;;12.55;100.00;99254.94;5053474;28;1914;-68
2023/04/15 06:18:40;;;;;;;;;;;;;;;12.41;100.00;99256.03;5054304;28;843;-68
2023/04/15 06:21:05;;;;;;;;;;;;;;;12.36;100.00;99262.06;5054431;28;832;-69
2023/04/15 06:23:36;;;;;;;;;;;;;;;12.29;100.00;99264.97;5054396;28;870;-68
2023/04/15 06:26:03;;;;;;;;;;;;;;;12.25;100.00;99271.38;5054519;28;815;-68
2023/04/15 06:28:30;;;;;;;;;;;;;;;12.26;100.00;99277.69;5054768;28;827;-68
2023/04/15 06:30:57;;;;;;;;;;;;;;;12.26;100.00;99292.34;5053116;28;1179;-68
2023/04/15 06:33:24;;;;;;;;;;;;;;;12.34;100.00;99298.53;5054727;28;791;-68
2023/04/15 06:35:51;;;;;;;;;;;;;;;12.35;100.00;99291.75;5054351;28;866;-72
2023/04/15 06:38:18;;;;;;;;;;;;;;;12.29;100.00;99304.56;5054420;28;1951;-71
2023/04/15 06:40:45;;;;;;;;;;;;;;;12.31;100.00;99304.13;5054431;28;889;-70
2023/04/15 06:43:11;;;;;;;;;;;;;;;12.46;100.00;99300.66;5053063;28;1164;-68
2023/04/15 06:45:38;;;;;;;;;;;;;;;12.59;100.00;99294.47;5054952;28;861;-68
2023/04/15 06:48:05;;;;;;;;;;;;;;;12.64;100.00;99305.03;5054830;28;838;-69
2023/04/15 06:50:32;;;;;;;;;;;;;;;12.72;100.00;99311.22;5054508;28;747;-68
2023/04/15 06:52:59;;;;;;;;;;;;;;;12.68;100.00;99327.16;5054111;28;1181;-68
2023/04/15 06:55:26;;;;;;;;;;;;;;;12.61;100.00;99316.97;5054151;28;755;-69
2023/04/15 06:57:52;;;;;;;;;;;;;;;12.71;100.00;99327.06;5053520;28;1951;-68
2023/04/15 07:00:19;;;;;;;;;;;;;;;12.82;100.00;99332.38;5052510;28;1372;-68
2023/04/15 07:02:47;;;;;;;;;;;;;;;13.02;100.00;99343.44;5053920;28;873;-68
2023/04/15 07:05:14;;;;;;;;;;;;;;;13.34;100.00;99359.41;5054284;28;826;-68
2023/04/15 07:07:41;;;;;;;;;;;;;;;13.45;100.00;99353.59;5053600;28;881;-66
2023/04/15 07:10:08;;;;;;;;;;;;;;;13.73;100.00;99354.13;5053819;28;1265;-66
2023/04/15 07:12:35;;;;;;;;;;;;;;;14.03;100.00;99353.72;5054221;28;814;-65
2023/04/15 07:15:03;;;;;;;;;;;;;;;14.29;100.00;99351.06;5053833;28;783;-65
2023/04/15 07:17:29;;;;;;;;;;;;;;;14.52;100.00;99346.47;5053541;28;1914;-64
2023/04/15 07:19:56;;;;;;;;;;;;;;;14.52;100.00;99336.13;5053765;28;917;-63
2023/04/15 07:22:22;;;;;;;;;;;;;;;14.27;100.00;99323.72;5053915;28;822;-64
2023/04/15 07:24:49;;;;;;;;;;;;;;;14.02;100.00;99324.38;5053160;28;850;-63
2023/04/15 07:27:16;;;;;;;;;;;;;;;13.98;100.00;99332.03;5053226;28;802;-63
2023/04/15 07:29:43;;;;;;;;;;;;;;;14.02;100.00;99318.06;5053175;28;940;-63
2023/04/15 07:32:10;;;;;;;;;;;;;;;13.85;100.00;99317.31;5053039;28;826;-63
2023/04/15 07:34:36;;;;;;;;;;;;;;;13.62;100.00;99313.50;5053092;28;881;-63
2023/04/15 07:37:04;;;;;;;;;;;;;;;13.40;100.00;99326.34;5052938;28;1914;-63
2023/04/15 07:39:30;;;;;;;;;;;;;;;13.27;100.00;99360.31;5052932;28;988;-63
2023/04/15 07:41:57;;;;;;;;;;;;;;;13.13;100.00;99370.94;5052890;28;794;-62
2023/04/15 07:44:25;;;;;;;;;;;;;;;13.06;100.00;99375.44;5052903;28;834;-62
2023/04/15 07:46:52;;;;;;;;;;;;;;;13.11;100.00;99396.34;5052753;28;889;-61
2023/04/15 07:49:20;;;;;;;;;;;;;;;13.20;100.00;99390.97;5052878;28;814;-61
2023/04/15 07:51:47;;;;;;;;;;;;;;;13.23;100.00;99395.69;5053031;28;810;-61
2023/04/15 07:54:14;;;;;;;;;;;;;;;13.38;100.00;99393.41;5052865;28;1238;-61
2023/04/15 07:56:41;;;;;;;;;;;;;;;13.47;100.00;99367.81;5052639;28;1921;-61
2023/04/15 07:59:08;;;;;;;;;;;;;;;13.50;100.00;99369.72;5052683;28;862;-60
2023/04/15 08:01:35;;;;;;;;;;;;;;;13.56;100.00;99390.19;5052947;28;787;-61
2023/04/15 08:04:01;;;;;;;;;;;;;;;13.60;100.00;99393.69;5052848;28;1007;-60
2023/04/15 08:06:27;;;;;;;;;;;;;;;13.64;100.00;99399.94;5052441;28;835;-60
2023/04/15 08:08:54;;;;;;;;;;;;;;;13.58;100.00;99392.56;5051976;28;918;-60
2023/04/15 08:11:22;;;;;;;;;;;;;;;13.61;100.00;99397.22;5052200;28;1433;-60
2023/04/15 08:13:48;;;;;;;;;;;;;;;13.68;100.00;99399.84;5052481;28;846;-60
2023/04/15 08:16:19;;;;;;;;;;;;;;;13.93;100.00;99396.44;5052254;28;1981;-60
2023/04/15 08:18:46;;;;;;;;;;;;;;;14.15;100.00;99398.69;5052541;28;869;-60
2023/04/15 08:21:13;;;;;;;;;;;;;;;14.34;100.00;99399.78;5051057;28;1621;-60
2023/04/15 08:23:41;;;;;;;;;;;;;;;14.59;100.00;99399.91;5052149;28;933;-60
2023/04/15 08:26:08;;;;;;;;;;;;;;;14.77;100.00;99390.28;5052087;28;925;-59
2023/04/15 08:28:36;;;;;;;;;;;;;;;14.52;100.00;99388.19;5052070;28;830;-59
2023/04/15 08:31:03;;;;;;;;;;;;;;;14.24;100.00;99391.28;5050802;28;1627;-59
2023/04/15 08:33:30;;;;;;;;;;;;;;;14.25;100.00;99392.06;5052219;28;842;-59
2023/04/15 08:35:57;;;;;;;;;;;;;;;14.33;100.00;99376.75;5051895;28;910;-59
2023/04/15 08:38:23;;;;;;;;;;;;;;;14.33;100.00;99389.88;5051873;28;1965;-59
2023/04/15 08:40:50;;;;;;;;;;;;;;;14.08;100.00;99406.00;5051827;28;814;-58
2023/04/15 08:43:27;;;;;;;;;;;;;;;14.03;100.00;99420.41;5051874;28;881;-58
2023/04/15 08:45:54;;;;;;;;;;;;;;;13.90;100.00;99430.66;5051720;28;927;-58
2023/04/15 08:48:23;;;;;;;;;;;;;;;13.87;100.00;99417.66;5051620;28;893;-58
2023/04/15 08:50:49;;;;;;;;;;;;;;;14.03;100.00;99419.63;5051640;28;969;-58
2023/04/15 08:53:16;;;;;;;;;;;;;;;14.27;100.00;99421.00;5051623;28;818;-58
2023/04/15 08:55:44;;;;;;;;;;;;;;;14.68;100.00;99416.75;5051542;28;894;-58
2023/04/15 08:58:13;;;;;;;;;;;;;;;15.05;100.00;99424.84;5051576;28;1898;-58
2023/04/15 09:00:40;;;;;;;;;;;;;;;15.20;100.00;99426.00;5051578;28;1181;-58
2023/04/15 09:03:08;;;;;;;;;;;;;;;15.25;100.00;99417.06;5051588;28;921;-58
2023/04/15 09:05:35;;;;;;;;;;;;;;;15.67;100.00;99419.00;5051768;28;921;-58
2023/04/15 09:08:02;;;;;;;;;;;;;;;16.13;100.00;99405.59;5051324;28;986;-59
2023/04/15 09:10:29;;;;;;;;;;;;;;;16.71;100.00;99393.19;5051311;28;1409;-59
2023/04/15 09:12:56;;;;;;;;;;;;;;;17.29;100.00;99398.19;5050176;28;862;-59
2023/04/15 09:15:24;;;;;;;;;;;;;;;17.81;100.00;99397.75;5051347;28;826;-59
2023/04/15 09:17:50;;;;;;;;;;;;;;;18.78;100.00;99397.25;5051220;28;1975;-59
2023/04/15 09:20:19;;;;;;;;;;;;;;;19.26;100.00;99394.63;5052073;28;1032;-60
2023/04/15 09:22:46;;;;;;;;;;;;;;;19.11;100.00;99391.72;5055509;28;806;-60
2023/04/15 09:25:22;;;;;;;;;;;;;;;18.97;100.00;99389.63;5055812;28;822;-61
2023/04/15 09:27:59;;;;;;;;;;;;;;;18.83;100.00;99390.25;5054138;28;699;-61
2023/04/15 09:30:27;;;;;;;;;;;;;;;18.71;100.00;99386.34;5055361;28;818;-61
2023/04/15 09:32:54;;;;;;;;;;;;;;;18.64;100.00;99384.63;5055392;28;819;-62
2023/04/15 09:35:21;;;;;;;;;;;;;;;18.90;100.00;99387.88;5055298;28;874;-63
2023/04/15 09:37:48;;;;;;;;;;;;;;;18.98;100.00;99389.13;5055123;28;1949;-63
2023/04/15 10:09:16;;;;;;;;;;;;;;;17.64;100.00;99378.47;6261063;22;1672;-68
2023/04/15 10:11:45;;;;;;;;;;;;;;;18.01;100.00;99377.78;5053643;28;1661;-66
2023/04/15 10:14:12;;;;;;;;;;;;;;;17.95;100.00;99377.63;5054777;28;817;-66
2023/04/15 10:16:41;;;;;;;;;;;;;;;18.09;100.00;99379.03;5054520;28;1971;-66
2023/04/15 10:19:08;;;;;;;;;;;;;;;18.32;100.00;99360.88;5054492;28;877;-66
2023/04/15 10:21:36;;;;;;;;;;;;;;;18.20;100.00;99364.59;5054542;28;830;-66
2023/04/15 10:24:03;;;;;;;;;;;;;;;18.31;100.00;99362.91;5054723;28;924;-65
2023/04/15 10:26:30;;;;;;;;;;;;;;;18.52;100.00;99369.59;5054437;28;810;-64
2023/04/15 10:28:57;;;;;;;;;;;;;;;18.54;100.00;99369.09;5054453;28;870;-66
2023/04/15 10:31:24;;;;;;;;;;;;;;;18.17;100.00;99369.88;5053939;28;806;-66
2023/04/15 10:33:51;;;;;;;;;;;;;;;18.02;100.00;99370.97;5054370;28;833;-66
2023/04/15 10:36:18;;;;;;;;;;;;;;;18.13;100.00;99360.09;5054172;28;1951;-65
2023/04/15 10:38:46;;;;;;;;;;;;;;;18.40;100.00;99356.53;5054093;28;825;-66
2023/04/15 10:41:22;;;;;;;;;;;;;;;18.72;100.00;99359.91;5054068;28;841;-65
2023/04/15 10:43:59;;;;;;;;;;;;;;;18.79;100.00;99365.22;5054114;28;873;-65
2023/04/15 10:46:36;;;;;;;;;;;;;;;18.72;100.00;99365.50;5054080;28;798;-66
2023/04/15 10:49:09;;;;;;;;;;;;;;;18.82;100.00;99361.50;5053947;28;813;-67
2023/04/15 10:51:40;;;;;;;;;;;;;;;19.16;100.00;99359.50;5054363;28;782;-67
2023/04/15 10:54:26;;;;;;;;;;;;;;;19.45;100.00;99364.53;5053908;28;893;-68
2023/04/15 10:57:13;;;;;;;;;;;;;;;19.71;100.00;99361.31;5053739;28;1898;-68
2023/04/15 11:00:00;;;;;;;;;;;;;;;20.03;100.00;99353.31;5046495;28;1148;-69
2023/04/15 11:02:43;;;;;;;;;;;;;;;20.25;100.00;99359.38;5053670;28;1040;-68
2023/04/15 11:05:11;;;;;;;;;;;;;;;20.22;100.00;99360.34;5053603;28;830;-68
2023/04/15 11:07:45;;;;;;;;;;;;;;;20.29;100.00;99359.19;5053680;28;901;-68
2023/04/15 11:10:38;;;;;;;;;;;;;;;20.74;100.00;99365.66;5053507;28;1199;-68
2023/04/15 11:13:13;;;;;;;;;;;;;;;20.95;100.00;99361.72;5053469;28;1172;-70
2023/04/15 11:15:45;;;;;;;;;;;;;;;21.26;100.00;99363.22;5053388;28;1060;-70
2023/04/15 11:18:16;;;;;;;;;;;;;;;21.24;100.00;99354.50;5053471;28;1975;-70
2023/04/15 11:20:46;;;;;;;;;;;;;;;21.45;100.00;99360.22;5052236;28;1452;-70
2023/04/15 11:23:36;;;;;;;;;;;;;;;21.77;100.00;99347.91;5053326;28;841;-72
2023/04/15 11:26:22;;;;;;;;;;;;;;;22.12;100.00;99354.72;5046887;28;1117;-72
2023/04/15 11:28:49;;;;;;;;;;;;;;;21.94;100.00;99348.13;5053548;28;842;-73
2023/04/15 11:31:17;;;;;;;;;;;;;;;22.10;100.00;99337.56;5053152;28;842;-73
2023/04/15 11:34:04;;;;;;;;;;;;;;;;;;;;;
2023/04/15 11:36:34;;;;;;;;;;;;;;;22.21;100.00;99340.50;5050096;28;1901;-71
2023/04/15 11:39:00;;;;;;;;;;;;;;;22.63;100.00;99339.19;5053025;28;877;-73
2023/04/15 11:41:26;;;;;;;;;;;;;;;22.76;95.72;99333.94;5053010;28;830;-72
2023/04/15 11:43:53;;;;;;;;;;;;;;;22.79;98.43;99330.13;5052097;28;830;-71
2023/04/15 11:46:20;;;;;;;;;;;;;;;22.98;95.05;99324.91;5053013;28;818;-73
2023/04/15 11:48:47;;;;;;;;;;;;;;;22.99;99.08;99334.13;5052876;28;913;-72
2023/04/15 11:51:14;;;;;;;;;;;;;;;23.38;96.71;99328.81;5052834;28;822;-73
2023/04/15 11:53:44;;;;;;;;;;;;;;;23.89;95.28;99326.28;5052768;28;833;-72
2023/04/15 11:56:20;;;;;;;;;;;;;;;23.93;95.41;99323.22;5052642;28;1885;-73
2023/04/15 11:58:49;;;;;;;;;;;;;;;24.13;95.24;99331.53;5052703;28;957;-73
2023/04/15 12:01:16;;;;;;;;;;;;;;;24.55;95.01;99329.84;5053046;28;837;-74
2023/04/15 12:03:44;;;;;;;;;;;;;;;24.54;87.45;99327.56;5052813;28;905;-73
2023/04/15 12:06:12;;;;;;;;;;;;;;;24.45;90.56;99326.50;5052737;28;849;-74
2023/04/15 12:09:00;;;;;;;;;;;;;;;24.72;91.90;99321.41;5052622;28;1068;-74
2023/04/15 12:11:29;;;;;;;;;;;;;;;24.81;87.22;99314.72;5052553;28;1201;-74
2023/04/15 12:13:57;;;;;;;;;;;;;;;24.98;90.13;99315.50;5052600;28;888;-72
2023/04/15 12:16:24;;;;;;;;;;;;;;;24.80;81.62;99318.84;5052386;28;1909;-72
2023/04/15 12:19:01;;;;;;;;;;;;;;;24.84;84.67;99316.53;5052343;28;872;-72
2023/04/15 12:21:33;;;;;;;;;;;;;;;25.19;87.53;99309.56;5052322;28;888;-73
2023/04/15 12:24:03;;;;;;;;;;;;;;;25.37;83.99;99303.41;5052979;28;896;-72
2023/04/15 12:26:45;;;;;;;;;;;;;;;25.54;84.66;99299.75;5052207;28;916;-71
2023/04/15 12:29:13;;;;;;;;;;;;;;;25.13;76.18;99297.50;5052112;28;896;-73
2023/04/15 12:31:51;;;;;;;;;;;;;;;24.83;75.75;99295.97;5052014;28;842;-73
2023/04/15 12:34:24;;;;;;;;;;;;;;;25.10;76.89;99302.13;5052226;28;861;-72
2023/04/15 12:36:51;;;;;;;;;;;;;;;25.32;76.81;99294.94;5051834;28;1886;-71
2023/04/15 12:39:17;;;;;;;;;;;;;;;25.37;76.45;99289.28;5051876;28;859;-71
2023/04/15 12:41:44;;;;;;;;;;;;;;;25.61;80.73;99294.34;5051976;28;877;-73
2023/04/15 12:44:11;;;;;;;;;;;;;;;25.74;74.30;99296.63;5051836;28;901;-72
2023/04/15 12:46:37;;;;;;;;;;;;;;;24.16;80.31;99293.81;5051884;28;881;-72
2023/04/15 12:49:04;;;;;;;;;;;;;;;23.25;94.39;99289.00;5050210;28;1147;-72
2023/04/15 12:51:31;;;;;;;;;;;;;;;22.81;92.80;99290.19;5051798;28;837;-73
2023/04/15 12:53:57;;;;;;;;;;;;;;;22.54;93.00;99289.44;5050236;28;1363;-73
2023/04/15 12:56:23;;;;;;;;;;;;;;;22.56;87.58;99286.91;5050265;28;1885;-73
2023/04/15 12:58:50;;;;;;;;;;;;;;;22.97;81.07;99286.72;5050306;28;1242;-71
2023/04/15 13:01:17;;;;;;;;;;;;;;;23.47;75.62;99285.56;5051572;28;913;-73
2023/04/15 13:03:44;;;;;;;;;;;;;;;23.36;73.18;99291.88;5050471;28;1317;-70
2023/04/15 13:06:10;;;;;;;;;;;;;;;23.47;76.91;99287.59;5051729;28;830;-71
2023/04/15 13:08:37;;;;;;;;;;;;;;;23.59;77.45;99286.38;5051629;28;900;-69
2023/04/15 13:11:04;;;;;;;;;;;;;;;23.22;78.62;99295.66;5051337;28;1229;-70
2023/04/15 13:13:31;;;;;;;;;;;;;;;22.90;81.36;99294.88;5051475;28;1039;-69
2023/04/15 13:15:57;;;;;;;;;;;;;;;22.35;84.26;99300.25;5051602;28;814;-71
2023/04/15 13:18:24;;;;;;;;;;;;;;;22.04;84.96;99300.94;5051445;28;1918;-71
2023/04/15 13:20:51;;;;;;;;;;;;;;;21.98;84.80;99300.09;5051364;28;880;-71
2023/04/15 13:23:18;;;;;;;;;;;;;;;23.65;80.65;99290.00;5051388;28;897;-70
2023/04/15 13:25:45;;;;;;;;;;;;;;;24.54;79.25;99296.50;5051357;28;877;-70
2023/04/15 13:28:12;;;;;;;;;;;;;;;25.13;79.79;99289.03;5051290;28;872;-71
2023/04/15 13:30:39;;;;;;;;;;;;;;;25.57;80.86;99284.59;5050028;28;1585;-71